Terminal Aerodrome Forecast
Issued by NWS Sterling, VA

Current Version | Previous Version | Text Only | Print | Product List | Glossary Off
Versions: 1 2 3 4 5 6 7 8 9 10 11 12 13 14 15 16 17

000
FTUS41 KLWX 191700
TAFMRB
TAF
KMRB 191733Z 1918/2018 13005KT P6SM BKN025
     FM192100 14005KT P6SM SCT025 BKN050
     FM200600 VRB03KT 5SM BR BKN050 BKN130
     FM201300 15004KT P6SM BKN050
     FM201700 16008KT P6SM BKN050=

USA.gov is the U.S. government's official web portal to all federal, state and local government web resources and services.